PWSweather.com
Personal Weather Stations
Station Observations
KTXROWLE6
Ravens Nest, Rowlett, TX 75089

Ravens NestRowlett, TX 75089

Lat: 32.93105, Lon: -96.57368

Elevation: 556

Station Type: Davis Vantage Pro2 6152

http://rowlett.ws

High Low Average
Temperature 87.5°F30.8°C 71.9°F22.2°C 79.9°F26.6°C
Dew Point 74.6°F23.7°C 62.0°F16.7°C 68.1°F20.1°C
Winds 5.6 mph 9.0 kmh Calm Calm 2.0 mph SW3.2 kmh SW
Wind Gusts 11.0 mph17.7 kmh -- 6.0 mph9.7 kmh
Humidity 93% 44% 69%
Pressure 29.99 in1015.6 mb 29.86 in1011.2 mb -
Precipitation 0.00 in0.0 mm - -
Hour Temp Dew Point Humidity Winds Wind Gusts Pressure Precip Precip Rate Daily Precip Total
12:00 AM 74.4°F23.6°C 66.7°F19.3°C 77% 4.1 mph SSW6.6 kmh SSW 10.0 mph16.1 kmh 29.97 in1014.9 mb 0.00 in0.0 mm 0.00 in0.0 mm 0.00 in0.0 mm
12:05 AM 74.4°F23.6°C 67.1°F19.5°C 78% 2.9 mph SSW4.7 kmh SSW 7.0 mph11.3 kmh 29.96 in1014.6 mb 0.00 in0.0 mm 0.00 in0.0 mm 0.00 in0.0 mm
12:10 AM 74.4°F23.6°C 67.1°F19.5°C 78% 3.4 mph SSW5.5 kmh SSW 7.0 mph11.3 kmh 29.96 in1014.6 mb 0.00 in0.0 mm 0.00 in0.0 mm 0.00 in0.0 mm
12:15 AM 74.4°F23.6°C 67.1°F19.5°C 78% 2.7 mph SSW4.3 kmh SSW 7.0 mph11.3 kmh 29.96 in1014.6 mb 0.00 in0.0 mm 0.00 in0.0 mm 0.00 in0.0 mm
12:20 AM 74.4°F23.6°C 67.1°F19.5°C 78% 2.4 mph S3.9 kmh S 6.0 mph9.7 kmh 29.96 in1014.6 mb 0.00 in0.0 mm 0.00 in0.0 mm 0.00 in0.0 mm
12:25 AM 74.4°F23.6°C 67.1°F19.5°C 78% 2.4 mph SSW3.9 kmh SSW 6.0 mph9.7 kmh 29.96 in1014.6 mb 0.00 in0.0 mm 0.00 in0.0 mm 0.00 in0.0 mm
12:30 AM 74.4°F23.6°C 67.1°F19.5°C 78% 2.7 mph SSW4.3 kmh SSW 6.0 mph9.7 kmh 29.95 in1014.2 mb 0.00 in0.0 mm 0.00 in0.0 mm 0.00 in0.0 mm
12:35 AM 74.4°F23.6°C 67.1°F19.5°C 78% 1.6 mph SSW2.6 kmh SSW 6.0 mph9.7 kmh 29.95 in1014.2 mb 0.00 in0.0 mm 0.00 in0.0 mm 0.00 in0.0 mm
12:40 AM 74.4°F23.6°C 67.1°F19.5°C 78% 2.9 mph SSW4.7 kmh SSW 6.0 mph9.7 kmh 29.95 in1014.2 mb 0.00 in0.0 mm 0.00 in0.0 mm 0.00 in0.0 mm
12:45 AM 74.3°F23.5°C 67.0°F19.4°C 78% 2.7 mph SSW4.3 kmh SSW 6.0 mph9.7 kmh 29.94 in1013.9 mb 0.00 in0.0 mm 0.00 in0.0 mm 0.00 in0.0 mm
12:50 AM 74.2°F23.4°C 66.9°F19.4°C 78% 3.7 mph SSW6.0 kmh SSW 6.0 mph9.7 kmh 29.94 in1013.9 mb 0.00 in0.0 mm 0.00 in0.0 mm 0.00 in0.0 mm
12:55 AM 74.2°F23.4°C 66.9°F19.4°C 78% 3.5 mph SSW5.6 kmh SSW 7.0 mph11.3 kmh 29.94 in1013.9 mb 0.00 in0.0 mm 0.00 in0.0 mm 0.00 in0.0 mm
01:00 AM 74.2°F23.4°C 66.9°F19.4°C 78% 3.9 mph SSW6.3 kmh SSW 7.0 mph11.3 kmh 29.94 in1013.9 mb 0.00 in0.0 mm 0.00 in0.0 mm 0.00 in0.0 mm
01:05 AM 74.1°F23.4°C 67.2°F19.6°C 79% 3.9 mph SW6.3 kmh SW 7.0 mph11.3 kmh 29.94 in1013.9 mb 0.00 in0.0 mm 0.00 in0.0 mm 0.00 in0.0 mm
01:10 AM 74.0°F23.3°C 67.1°F19.5°C 79% 2.9 mph SW4.7 kmh SW 6.0 mph9.7 kmh 29.94 in1013.9 mb 0.00 in0.0 mm 0.00 in0.0 mm 0.00 in0.0 mm
01:15 AM 73.9°F23.3°C 67.0°F19.4°C 79% 3.4 mph SSW5.5 kmh SSW 6.0 mph9.7 kmh 29.94 in1013.9 mb 0.00 in0.0 mm 0.00 in0.0 mm 0.00 in0.0 mm
01:20 AM 73.9°F23.3°C 67.0°F19.4°C 79% 2.5 mph SW4.0 kmh SW 6.0 mph9.7 kmh 29.93 in1013.5 mb 0.00 in0.0 mm 0.00 in0.0 mm 0.00 in0.0 mm
01:25 AM 73.8°F23.2°C 67.2°F19.6°C 80% 3.1 mph SW5.0 kmh SW 8.0 mph12.9 kmh 29.93 in1013.5 mb 0.00 in0.0 mm 0.00 in0.0 mm 0.00 in0.0 mm
01:30 AM 73.8°F23.2°C 67.2°F19.6°C 80% 3.6 mph SW5.8 kmh SW 8.0 mph12.9 kmh 29.93 in1013.5 mb 0.00 in0.0 mm 0.00 in0.0 mm 0.00 in0.0 mm
01:35 AM 73.8°F23.2°C 67.2°F19.6°C 80% 4.1 mph SW6.6 kmh SW 7.0 mph11.3 kmh 29.93 in1013.5 mb 0.00 in0.0 mm 0.00 in0.0 mm 0.00 in0.0 mm
01:40 AM 73.8°F23.2°C 67.2°F19.6°C 80% 4.2 mph SSW6.8 kmh SSW 9.0 mph14.5 kmh 29.93 in1013.5 mb 0.00 in0.0 mm 0.00 in0.0 mm 0.00 in0.0 mm
01:45 AM 73.8°F23.2°C 67.2°F19.6°C 80% 3.3 mph SSW5.3 kmh SSW 9.0 mph14.5 kmh 29.93 in1013.5 mb 0.00 in0.0 mm 0.00 in0.0 mm 0.00 in0.0 mm
01:50 AM 73.6°F23.1°C 67.4°F19.7°C 81% 2.6 mph SSW4.2 kmh SSW 6.0 mph9.7 kmh 29.93 in1013.5 mb 0.00 in0.0 mm 0.00 in0.0 mm 0.00 in0.0 mm
01:55 AM 73.6°F23.1°C 67.4°F19.7°C 81% 3.9 mph SW6.3 kmh SW 7.0 mph11.3 kmh 29.92 in1013.2 mb 0.00 in0.0 mm 0.00 in0.0 mm 0.00 in0.0 mm
02:00 AM 73.6°F23.1°C 67.4°F19.7°C 81% 4.1 mph SW6.6 kmh SW 7.0 mph11.3 kmh 29.93 in1013.5 mb 0.00 in0.0 mm 0.00 in0.0 mm 0.00 in0.0 mm
02:05 AM 73.5°F23.1°C 67.3°F19.6°C 81% 2.7 mph SW4.3 kmh SW 7.0 mph11.3 kmh 29.92 in1013.2 mb 0.00 in0.0 mm 0.00 in0.0 mm 0.00 in0.0 mm
02:10 AM 73.5°F23.1°C 67.7°F19.8°C 82% 2.6 mph SW4.2 kmh SW 6.0 mph9.7 kmh 29.92 in1013.2 mb 0.00 in0.0 mm 0.00 in0.0 mm 0.00 in0.0 mm
02:15 AM 73.4°F23.0°C 67.6°F19.8°C 82% 2.1 mph SW3.4 kmh SW 5.0 mph8.0 kmh 29.92 in1013.2 mb 0.00 in0.0 mm 0.00 in0.0 mm 0.00 in0.0 mm
02:20 AM 73.4°F23.0°C 67.6°F19.8°C 82% 1.5 mph SW2.4 kmh SW 4.0 mph6.4 kmh 29.92 in1013.2 mb 0.00 in0.0 mm 0.00 in0.0 mm 0.00 in0.0 mm
02:25 AM 73.4°F23.0°C 67.9°F19.9°C 83% 1.5 mph SW2.4 kmh SW 4.0 mph6.4 kmh 29.92 in1013.2 mb 0.00 in0.0 mm 0.00 in0.0 mm 0.00 in0.0 mm
02:30 AM 73.5°F23.1°C 68.0°F20.0°C 83% 1.4 mph SW2.3 kmh SW 4.0 mph6.4 kmh 29.92 in1013.2 mb 0.00 in0.0 mm 0.00 in0.0 mm 0.00 in0.0 mm
02:35 AM 73.3°F22.9°C 67.8°F19.9°C 83% 1.2 mph SW1.9 kmh SW 3.0 mph4.8 kmh 29.92 in1013.2 mb 0.00 in0.0 mm 0.00 in0.0 mm 0.00 in0.0 mm
02:40 AM 73.4°F23.0°C 67.9°F19.9°C 83% 1.2 mph SSW1.9 kmh SSW 4.0 mph6.4 kmh 29.92 in1013.2 mb 0.00 in0.0 mm 0.00 in0.0 mm 0.00 in0.0 mm
02:45 AM 73.5°F23.1°C 68.0°F20.0°C 83% 1.5 mph SW2.4 kmh SW 4.0 mph6.4 kmh 29.92 in1013.2 mb 0.00 in0.0 mm 0.00 in0.0 mm 0.00 in0.0 mm
02:50 AM 73.4°F23.0°C 67.9°F19.9°C 83% 1.2 mph SSW1.9 kmh SSW 3.0 mph4.8 kmh 29.92 in1013.2 mb 0.00 in0.0 mm 0.00 in0.0 mm 0.00 in0.0 mm
02:55 AM 73.5°F23.1°C 68.0°F20.0°C 83% 1.1 mph SSW1.8 kmh SSW 4.0 mph6.4 kmh 29.92 in1013.2 mb 0.00 in0.0 mm 0.00 in0.0 mm 0.00 in0.0 mm
03:00 AM 73.5°F23.1°C 68.0°F20.0°C 83% 1.3 mph SSW2.1 kmh SSW 4.0 mph6.4 kmh 29.92 in1013.2 mb 0.00 in0.0 mm 0.00 in0.0 mm 0.00 in0.0 mm
03:05 AM 73.4°F23.0°C 67.9°F19.9°C 83% 0.8 mph SSW1.3 kmh SSW 3.0 mph4.8 kmh 29.92 in1013.2 mb 0.00 in0.0 mm 0.00 in0.0 mm 0.00 in0.0 mm
03:10 AM 73.4°F23.0°C 67.9°F19.9°C 83% 1.4 mph SSW2.3 kmh SSW 4.0 mph6.4 kmh 29.92 in1013.2 mb 0.00 in0.0 mm 0.00 in0.0 mm 0.00 in0.0 mm
03:15 AM 73.3°F22.9°C 68.2°F20.1°C 84% 1.6 mph SSW2.6 kmh SSW 4.0 mph6.4 kmh 29.92 in1013.2 mb 0.00 in0.0 mm 0.00 in0.0 mm 0.00 in0.0 mm
03:20 AM 73.3°F22.9°C 68.2°F20.1°C 84% 2.4 mph SW3.9 kmh SW 5.0 mph8.0 kmh 29.92 in1013.2 mb 0.00 in0.0 mm 0.00 in0.0 mm 0.00 in0.0 mm
03:25 AM 73.3°F22.9°C 68.2°F20.1°C 84% 2.9 mph SSW4.7 kmh SSW 7.0 mph11.3 kmh 29.92 in1013.2 mb 0.00 in0.0 mm 0.00 in0.0 mm 0.00 in0.0 mm
03:30 AM 73.3°F22.9°C 68.2°F20.1°C 84% 1.3 mph SSW2.1 kmh SSW 7.0 mph11.3 kmh 29.92 in1013.2 mb 0.00 in0.0 mm 0.00 in0.0 mm 0.00 in0.0 mm
03:35 AM 73.3°F22.9°C 68.2°F20.1°C 84% 1.1 mph SSW1.8 kmh SSW 6.0 mph9.7 kmh 29.91 in1012.9 mb 0.00 in0.0 mm 0.00 in0.0 mm 0.00 in0.0 mm
03:40 AM 73.3°F22.9°C 68.2°F20.1°C 84% 1.1 mph SSW1.8 kmh SSW 4.0 mph6.4 kmh 29.91 in1012.9 mb 0.00 in0.0 mm 0.00 in0.0 mm 0.00 in0.0 mm
03:45 AM 73.0°F22.8°C 67.9°F19.9°C 84% 0.2 mph SSW0.3 kmh SSW 3.0 mph4.8 kmh 29.91 in1012.9 mb 0.00 in0.0 mm 0.00 in0.0 mm 0.00 in0.0 mm
03:50 AM 72.8°F22.7°C 67.7°F19.8°C 84% 0.1 mph SSW0.2 kmh SSW 1.0 mph1.6 kmh 29.91 in1012.9 mb 0.00 in0.0 mm 0.00 in0.0 mm 0.00 in0.0 mm
03:55 AM 72.8°F22.7°C 68.0°F20.0°C 85% 0.9 mph SSW1.4 kmh SSW 4.0 mph6.4 kmh 29.91 in1012.9 mb 0.00 in0.0 mm 0.00 in0.0 mm 0.00 in0.0 mm
04:00 AM 72.7°F22.6°C 67.9°F19.9°C 85% 0.5 mph SSW0.8 kmh SSW 4.0 mph6.4 kmh 29.91 in1012.9 mb 0.00 in0.0 mm 0.00 in0.0 mm 0.00 in0.0 mm
04:05 AM 72.6°F22.6°C 67.8°F19.9°C 85% 0.5 mph SSW0.8 kmh SSW 2.0 mph3.2 kmh 29.91 in1012.9 mb 0.00 in0.0 mm 0.00 in0.0 mm 0.00 in0.0 mm
04:10 AM 72.5°F22.5°C 67.7°F19.8°C 85% Calm Calm 2.0 mph3.2 kmh 29.92 in1013.2 mb 0.00 in0.0 mm 0.00 in0.0 mm 0.00 in0.0 mm
04:15 AM 72.6°F22.6°C 68.2°F20.1°C 86% 0.4 mph SSW0.6 kmh SSW 2.0 mph3.2 kmh 29.92 in1013.2 mb 0.00 in0.0 mm 0.00 in0.0 mm 0.00 in0.0 mm
04:20 AM 72.6°F22.6°C 68.2°F20.1°C 86% 0.1 mph SSW0.2 kmh SSW 2.0 mph3.2 kmh 29.93 in1013.5 mb 0.00 in0.0 mm 0.00 in0.0 mm 0.00 in0.0 mm
04:25 AM 72.5°F22.5°C 68.4°F20.2°C 87% Calm Calm 1.0 mph1.6 kmh 29.93 in1013.5 mb 0.00 in0.0 mm 0.00 in0.0 mm 0.00 in0.0 mm
04:30 AM 72.5°F22.5°C 68.4°F20.2°C 87% Calm Calm -- 29.93 in1013.5 mb 0.00 in0.0 mm 0.00 in0.0 mm 0.00 in0.0 mm
04:35 AM 72.3°F22.4°C 68.5°F20.3°C 88% Calm Calm -- 29.93 in1013.5 mb 0.00 in0.0 mm 0.00 in0.0 mm 0.00 in0.0 mm
04:40 AM 72.2°F22.3°C 68.8°F20.4°C 89% Calm Calm -- 29.93 in1013.5 mb 0.00 in0.0 mm 0.00 in0.0 mm 0.00 in0.0 mm
04:45 AM 72.3°F22.4°C 69.2°F20.7°C 90% Calm Calm -- 29.93 in1013.5 mb 0.00 in0.0 mm 0.00 in0.0 mm 0.00 in0.0 mm
04:50 AM 72.2°F22.3°C 69.1°F20.6°C 90% Calm Calm -- 29.93 in1013.5 mb 0.00 in0.0 mm 0.00 in0.0 mm 0.00 in0.0 mm
04:55 AM 72.0°F22.2°C 69.2°F20.7°C 91% Calm Calm -- 29.93 in1013.5 mb 0.00 in0.0 mm 0.00 in0.0 mm 0.00 in0.0 mm
05:00 AM 72.0°F22.2°C 69.2°F20.7°C 91% Calm Calm -- 29.93 in1013.5 mb 0.00 in0.0 mm 0.00 in0.0 mm 0.00 in0.0 mm
05:05 AM 71.9°F22.2°C 69.1°F20.6°C 91% Calm Calm -- 29.93 in1013.5 mb 0.00 in0.0 mm 0.00 in0.0 mm 0.00 in0.0 mm
05:10 AM 72.0°F22.2°C 69.5°F20.8°C 92% Calm Calm -- 29.93 in1013.5 mb 0.00 in0.0 mm 0.00 in0.0 mm 0.00 in0.0 mm
05:15 AM 71.9°F22.2°C 69.4°F20.8°C 92% Calm Calm -- 29.93 in1013.5 mb 0.00 in0.0 mm 0.00 in0.0 mm 0.00 in0.0 mm
05:20 AM 71.9°F22.2°C 69.4°F20.8°C 92% Calm Calm -- 29.94 in1013.9 mb 0.00 in0.0 mm 0.00 in0.0 mm 0.00 in0.0 mm
05:25 AM 71.9°F22.2°C 69.8°F21.0°C 93% Calm Calm -- 29.94 in1013.9 mb 0.00 in0.0 mm 0.00 in0.0 mm 0.00 in0.0 mm
05:30 AM 72.1°F22.3°C 70.0°F21.1°C 93% Calm Calm -- 29.94 in1013.9 mb 0.00 in0.0 mm 0.00 in0.0 mm 0.00 in0.0 mm
05:35 AM 72.2°F22.3°C 70.1°F21.2°C 93% Calm Calm -- 29.94 in1013.9 mb 0.00 in0.0 mm 0.00 in0.0 mm 0.00 in0.0 mm
05:40 AM 72.5°F22.5°C 70.4°F21.3°C 93% Calm Calm -- 29.95 in1014.2 mb 0.00 in0.0 mm 0.00 in0.0 mm 0.00 in0.0 mm
05:45 AM 72.7°F22.6°C 70.6°F21.4°C 93% Calm Calm -- 29.95 in1014.2 mb 0.00 in0.0 mm 0.00 in0.0 mm 0.00 in0.0 mm
05:50 AM 73.0°F22.8°C 70.9°F21.6°C 93% Calm Calm -- 29.95 in1014.2 mb 0.00 in0.0 mm 0.00 in0.0 mm 0.00 in0.0 mm
05:55 AM 73.2°F22.9°C 71.0°F21.7°C 93% Calm Calm -- 29.95 in1014.2 mb 0.00 in0.0 mm 0.00 in0.0 mm 0.00 in0.0 mm
06:00 AM 73.4°F23.0°C 70.9°F21.6°C 92% Calm Calm -- 29.95 in1014.2 mb 0.00 in0.0 mm 0.00 in0.0 mm 0.00 in0.0 mm
06:05 AM 73.8°F23.2°C 71.3°F21.8°C 92% Calm Calm -- 29.96 in1014.6 mb 0.00 in0.0 mm 0.00 in0.0 mm 0.00 in0.0 mm
06:10 AM 74.1°F23.4°C 71.6°F22.0°C 92% Calm Calm -- 29.96 in1014.6 mb 0.00 in0.0 mm 0.00 in0.0 mm 0.00 in0.0 mm
06:15 AM 74.4°F23.6°C 71.6°F22.0°C 91% 0.1 mph SSW0.2 kmh SSW 1.0 mph1.6 kmh 29.96 in1014.6 mb 0.00 in0.0 mm 0.00 in0.0 mm 0.00 in0.0 mm
06:20 AM 74.8°F23.8°C 71.7°F22.1°C 90% Calm Calm 1.0 mph1.6 kmh 29.96 in1014.6 mb 0.00 in0.0 mm 0.00 in0.0 mm 0.00 in0.0 mm
06:25 AM 75.1°F23.9°C 71.6°F22.0°C 89% 0.5 mph SSW0.8 kmh SSW 2.0 mph3.2 kmh 29.95 in1014.2 mb 0.00 in0.0 mm 0.00 in0.0 mm 0.00 in0.0 mm
06:30 AM 75.4°F24.1°C 71.3°F21.8°C 87% 1.6 mph SSW2.6 kmh SSW 3.0 mph4.8 kmh 29.96 in1014.6 mb 0.00 in0.0 mm 0.00 in0.0 mm 0.00 in0.0 mm
06:35 AM 76.0°F24.4°C 71.8°F22.1°C 87% 0.9 mph SSW1.4 kmh SSW 3.0 mph4.8 kmh 29.96 in1014.6 mb 0.00 in0.0 mm 0.00 in0.0 mm 0.00 in0.0 mm
06:40 AM 76.1°F24.5°C 71.6°F22.0°C 86% 0.6 mph SSW1.0 kmh SSW 3.0 mph4.8 kmh 29.96 in1014.6 mb 0.00 in0.0 mm 0.00 in0.0 mm 0.00 in0.0 mm
06:45 AM 76.4°F24.7°C 71.9°F22.2°C 86% 0.6 mph SSW1.0 kmh SSW 3.0 mph4.8 kmh 29.96 in1014.6 mb 0.00 in0.0 mm 0.00 in0.0 mm 0.00 in0.0 mm
06:50 AM 76.5°F24.7°C 72.0°F22.2°C 86% 1.1 mph SSW1.8 kmh SSW 3.0 mph4.8 kmh 29.96 in1014.6 mb 0.00 in0.0 mm 0.00 in0.0 mm 0.00 in0.0 mm
06:55 AM 76.7°F24.8°C 72.2°F22.3°C 86% 1.3 mph SSW2.1 kmh SSW 4.0 mph6.4 kmh 29.97 in1014.9 mb 0.00 in0.0 mm 0.00 in0.0 mm 0.00 in0.0 mm
07:00 AM 76.9°F24.9°C 72.0°F22.2°C 85% 1.3 mph SSW2.1 kmh SSW 4.0 mph6.4 kmh 29.97 in1014.9 mb 0.00 in0.0 mm 0.00 in0.0 mm 0.00 in0.0 mm
07:05 AM 77.1°F25.1°C 72.2°F22.3°C 85% 1.1 mph SSW1.8 kmh SSW 3.0 mph4.8 kmh 29.97 in1014.9 mb 0.00 in0.0 mm 0.00 in0.0 mm 0.00 in0.0 mm
07:10 AM 78.0°F25.6°C 73.1°F22.8°C 85% 0.1 mph SSW0.2 kmh SSW 3.0 mph4.8 kmh 29.96 in1014.6 mb 0.00 in0.0 mm 0.00 in0.0 mm 0.00 in0.0 mm
07:15 AM 78.8°F26.0°C 73.2°F22.9°C 83% 0.9 mph SSW1.4 kmh SSW 3.0 mph4.8 kmh 29.96 in1014.6 mb 0.00 in0.0 mm 0.00 in0.0 mm 0.00 in0.0 mm
07:20 AM 79.3°F26.3°C 73.3°F22.9°C 82% 0.8 mph SSW1.3 kmh SSW 3.0 mph4.8 kmh 29.96 in1014.6 mb 0.00 in0.0 mm 0.00 in0.0 mm 0.00 in0.0 mm
07:25 AM 79.4°F26.3°C 72.7°F22.6°C 80% 1.8 mph WSW2.9 kmh WSW 4.0 mph6.4 kmh 29.96 in1014.6 mb 0.00 in0.0 mm 0.00 in0.0 mm 0.00 in0.0 mm
07:30 AM 79.4°F26.3°C 72.7°F22.6°C 80% 2.7 mph WSW4.3 kmh WSW 5.0 mph8.0 kmh 29.96 in1014.6 mb 0.00 in0.0 mm 0.00 in0.0 mm 0.00 in0.0 mm
07:35 AM 79.7°F26.5°C 73.3°F22.9°C 81% 2.4 mph WSW3.9 kmh WSW 5.0 mph8.0 kmh 29.96 in1014.6 mb 0.00 in0.0 mm 0.00 in0.0 mm 0.00 in0.0 mm
07:40 AM 79.9°F26.6°C 73.2°F22.9°C 80% 2.4 mph WSW3.9 kmh WSW 5.0 mph8.0 kmh 29.95 in1014.2 mb 0.00 in0.0 mm 0.00 in0.0 mm 0.00 in0.0 mm
07:45 AM 79.9°F26.6°C 73.2°F22.9°C 80% 3.0 mph WSW4.8 kmh WSW 7.0 mph11.3 kmh 29.95 in1014.2 mb 0.00 in0.0 mm 0.00 in0.0 mm 0.00 in0.0 mm
07:50 AM 80.0°F26.7°C 72.9°F22.7°C 79% 2.9 mph WSW4.7 kmh WSW 7.0 mph11.3 kmh 29.95 in1014.2 mb 0.00 in0.0 mm 0.00 in0.0 mm 0.00 in0.0 mm
07:55 AM 80.0°F26.7°C 73.6°F23.1°C 81% 2.7 mph SW4.3 kmh SW 6.0 mph9.7 kmh 29.95 in1014.2 mb 0.00 in0.0 mm 0.00 in0.0 mm 0.00 in0.0 mm
08:00 AM 80.0°F26.7°C 73.3°F22.9°C 80% 3.2 mph SW5.1 kmh SW 6.0 mph9.7 kmh 29.95 in1014.2 mb 0.00 in0.0 mm 0.00 in0.0 mm 0.00 in0.0 mm
08:05 AM 79.8°F26.6°C 73.1°F22.8°C 80% 4.1 mph SW6.6 kmh SW 7.0 mph11.3 kmh 29.95 in1014.2 mb 0.00 in0.0 mm 0.00 in0.0 mm 0.00 in0.0 mm
08:10 AM 79.6°F26.4°C 73.2°F22.9°C 81% 4.6 mph SW7.4 kmh SW 9.0 mph14.5 kmh 29.95 in1014.2 mb 0.00 in0.0 mm 0.00 in0.0 mm 0.00 in0.0 mm
08:15 AM 79.7°F26.5°C 73.3°F22.9°C 81% 3.7 mph SW6.0 kmh SW 9.0 mph14.5 kmh 29.95 in1014.2 mb 0.00 in0.0 mm 0.00 in0.0 mm 0.00 in0.0 mm
08:20 AM 80.0°F26.7°C 73.6°F23.1°C 81% 3.3 mph SSW5.3 kmh SSW 8.0 mph12.9 kmh 29.96 in1014.6 mb 0.00 in0.0 mm 0.00 in0.0 mm 0.00 in0.0 mm
08:25 AM 80.2°F26.8°C 73.8°F23.2°C 81% 3.3 mph SSW5.3 kmh SSW 7.0 mph11.3 kmh 29.96 in1014.6 mb 0.00 in0.0 mm 0.00 in0.0 mm 0.00 in0.0 mm
08:30 AM 80.3°F26.8°C 73.6°F23.1°C 80% 3.1 mph SSW5.0 kmh SSW 7.0 mph11.3 kmh 29.96 in1014.6 mb 0.00 in0.0 mm 0.00 in0.0 mm 0.00 in0.0 mm
08:35 AM 80.3°F26.8°C 73.9°F23.3°C 81% 4.3 mph SSW6.9 kmh SSW 8.0 mph12.9 kmh 29.96 in1014.6 mb 0.00 in0.0 mm 0.00 in0.0 mm 0.00 in0.0 mm
08:40 AM 80.3°F26.8°C 73.6°F23.1°C 80% 4.8 mph SSW7.7 kmh SSW 9.0 mph14.5 kmh 29.96 in1014.6 mb 0.00 in0.0 mm 0.00 in0.0 mm 0.00 in0.0 mm
08:45 AM 80.7°F27.1°C 73.9°F23.3°C 80% 2.2 mph WSW3.5 kmh WSW 9.0 mph14.5 kmh 29.96 in1014.6 mb 0.00 in0.0 mm 0.00 in0.0 mm 0.00 in0.0 mm
08:50 AM 81.2°F27.3°C 74.4°F23.6°C 80% 2.1 mph SW3.4 kmh SW 5.0 mph8.0 kmh 29.96 in1014.6 mb 0.00 in0.0 mm 0.00 in0.0 mm 0.00 in0.0 mm
08:55 AM 81.4°F27.4°C 74.6°F23.7°C 80% 1.3 mph SW2.1 kmh SW 5.0 mph8.0 kmh 29.96 in1014.6 mb 0.00 in0.0 mm 0.00 in0.0 mm 0.00 in0.0 mm
09:00 AM 81.8°F27.7°C 74.2°F23.4°C 78% 1.9 mph SW3.1 kmh SW 4.0 mph6.4 kmh 29.96 in1014.6 mb 0.00 in0.0 mm 0.00 in0.0 mm 0.00 in0.0 mm
09:05 AM 82.4°F28.0°C 73.7°F23.2°C 75% 2.5 mph WNW4.0 kmh WNW 6.0 mph9.7 kmh 29.96 in1014.6 mb 0.00 in0.0 mm 0.00 in0.0 mm 0.00 in0.0 mm
09:10 AM 82.4°F28.0°C 73.3°F22.9°C 74% 3.1 mph W5.0 kmh W 8.0 mph12.9 kmh 29.96 in1014.6 mb 0.00 in0.0 mm 0.00 in0.0 mm 0.00 in0.0 mm
09:15 AM 82.8°F28.2°C 74.4°F23.6°C 76% 2.6 mph WSW4.2 kmh WSW 8.0 mph12.9 kmh 29.96 in1014.6 mb 0.00 in0.0 mm 0.00 in0.0 mm 0.00 in0.0 mm
09:20 AM 82.8°F28.2°C 74.0°F23.3°C 75% 3.4 mph SW5.5 kmh SW 8.0 mph12.9 kmh 29.96 in1014.6 mb 0.00 in0.0 mm 0.00 in0.0 mm 0.00 in0.0 mm
09:25 AM 82.6°F28.1°C 73.9°F23.3°C 75% 2.4 mph SW3.9 kmh SW 8.0 mph12.9 kmh 29.96 in1014.6 mb 0.00 in0.0 mm 0.00 in0.0 mm 0.00 in0.0 mm
09:30 AM 82.5°F28.1°C 73.8°F23.2°C 75% 3.9 mph SW6.3 kmh SW 7.0 mph11.3 kmh 29.95 in1014.2 mb 0.00 in0.0 mm 0.00 in0.0 mm 0.00 in0.0 mm
09:35 AM 83.0°F28.3°C 73.4°F23.0°C 73% 3.7 mph WSW6.0 kmh WSW 8.0 mph12.9 kmh 29.96 in1014.6 mb 0.00 in0.0 mm 0.00 in0.0 mm 0.00 in0.0 mm
09:40 AM 83.1°F28.4°C 73.5°F23.1°C 73% 3.9 mph W6.3 kmh W 10.0 mph16.1 kmh 29.96 in1014.6 mb 0.00 in0.0 mm 0.00 in0.0 mm 0.00 in0.0 mm
09:45 AM 83.2°F28.4°C 73.2°F22.9°C 72% 3.1 mph WSW5.0 kmh WSW 10.0 mph16.1 kmh 29.96 in1014.6 mb 0.00 in0.0 mm 0.00 in0.0 mm 0.00 in0.0 mm
09:50 AM 83.3°F28.5°C 73.3°F22.9°C 72% 4.4 mph WSW7.1 kmh WSW 10.0 mph16.1 kmh 29.96 in1014.6 mb 0.00 in0.0 mm 0.00 in0.0 mm 0.00 in0.0 mm
09:55 AM 83.4°F28.6°C 73.4°F23.0°C 72% 4.0 mph W6.4 kmh W 10.0 mph16.1 kmh 29.96 in1014.6 mb 0.00 in0.0 mm 0.00 in0.0 mm 0.00 in0.0 mm
10:00 AM 83.7°F28.7°C 71.6°F22.0°C 67% 5.1 mph W8.2 kmh W 11.0 mph17.7 kmh 29.96 in1014.6 mb 0.00 in0.0 mm 0.00 in0.0 mm 0.00 in0.0 mm
10:05 AM 84.1°F28.9°C 71.9°F22.2°C 67% 4.7 mph WNW7.6 kmh WNW 11.0 mph17.7 kmh 29.96 in1014.6 mb 0.00 in0.0 mm 0.00 in0.0 mm 0.00 in0.0 mm
10:10 AM 84.3°F29.1°C 72.1°F22.3°C 67% 4.2 mph WNW6.8 kmh WNW 8.0 mph12.9 kmh 29.96 in1014.6 mb 0.00 in0.0 mm 0.00 in0.0 mm 0.00 in0.0 mm
10:15 AM 84.5°F29.2°C 71.9°F22.2°C 66% 3.6 mph WNW5.8 kmh WNW 8.0 mph12.9 kmh 29.97 in1014.9 mb 0.00 in0.0 mm 0.00 in0.0 mm 0.00 in0.0 mm
10:20 AM 84.7°F29.3°C 72.1°F22.3°C 66% 2.9 mph W4.7 kmh W 8.0 mph12.9 kmh 29.97 in1014.9 mb 0.00 in0.0 mm 0.00 in0.0 mm 0.00 in0.0 mm
10:25 AM 85.3°F29.6°C 73.1°F22.8°C 67% 3.1 mph WNW5.0 kmh WNW 6.0 mph9.7 kmh 29.97 in1014.9 mb 0.00 in0.0 mm 0.00 in0.0 mm 0.00 in0.0 mm
10:30 AM 85.7°F29.8°C 72.5°F22.5°C 65% 4.4 mph WNW7.1 kmh WNW 9.0 mph14.5 kmh 29.97 in1014.9 mb 0.00 in0.0 mm 0.00 in0.0 mm 0.00 in0.0 mm
10:35 AM 86.0°F30.0°C 73.7°F23.2°C 67% 3.3 mph WNW5.3 kmh WNW 9.0 mph14.5 kmh 29.98 in1015.2 mb 0.00 in0.0 mm 0.00 in0.0 mm 0.00 in0.0 mm
10:40 AM 86.0°F30.0°C 71.4°F21.9°C 62% 4.1 mph NW6.6 kmh NW 8.0 mph12.9 kmh 29.98 in1015.2 mb 0.00 in0.0 mm 0.00 in0.0 mm 0.00 in0.0 mm
10:45 AM 86.1°F30.1°C 71.0°F21.7°C 61% 4.0 mph WNW6.4 kmh WNW 8.0 mph12.9 kmh 29.98 in1015.2 mb 0.00 in0.0 mm 0.00 in0.0 mm 0.00 in0.0 mm
10:50 AM 86.2°F30.1°C 72.1°F22.3°C 63% 3.5 mph W5.6 kmh W 8.0 mph12.9 kmh 29.98 in1015.2 mb 0.00 in0.0 mm 0.00 in0.0 mm 0.00 in0.0 mm
10:55 AM 86.2°F30.1°C 71.6°F22.0°C 62% 3.6 mph W5.8 kmh W 8.0 mph12.9 kmh 29.98 in1015.2 mb 0.00 in0.0 mm 0.00 in0.0 mm 0.00 in0.0 mm
11:00 AM 86.0°F30.0°C 71.4°F21.9°C 62% 3.5 mph W5.6 kmh W 9.0 mph14.5 kmh 29.98 in1015.2 mb 0.00 in0.0 mm 0.00 in0.0 mm 0.00 in0.0 mm
11:05 AM 86.6°F30.3°C 65.7°F18.7°C 50% 4.0 mph NW6.4 kmh NW 9.0 mph14.5 kmh 29.98 in1015.2 mb 0.00 in0.0 mm 0.00 in0.0 mm 0.00 in0.0 mm
11:10 AM 86.6°F30.3°C 64.5°F18.1°C 48% 4.9 mph NNW7.9 kmh NNW 9.0 mph14.5 kmh 29.98 in1015.2 mb 0.00 in0.0 mm 0.00 in0.0 mm 0.00 in0.0 mm
11:15 AM 86.7°F30.4°C 64.6°F18.1°C 48% 4.2 mph NW6.8 kmh NW 9.0 mph14.5 kmh 29.99 in1015.6 mb 0.00 in0.0 mm 0.00 in0.0 mm 0.00 in0.0 mm
11:20 AM 86.5°F30.3°C 63.8°F17.7°C 47% 3.5 mph NW5.6 kmh NW 8.0 mph12.9 kmh 29.98 in1015.2 mb 0.00 in0.0 mm 0.00 in0.0 mm 0.00 in0.0 mm
11:25 AM 86.4°F30.2°C 64.4°F18.0°C 48% 3.7 mph WNW6.0 kmh WNW 8.0 mph12.9 kmh 29.98 in1015.2 mb 0.00 in0.0 mm 0.00 in0.0 mm 0.00 in0.0 mm
11:30 AM 86.2°F30.1°C 65.3°F18.5°C 50% 3.2 mph W5.1 kmh W 8.0 mph12.9 kmh 29.98 in1015.2 mb 0.00 in0.0 mm 0.00 in0.0 mm 0.00 in0.0 mm
11:35 AM 86.3°F30.2°C 66.6°F19.2°C 52% 3.5 mph NW5.6 kmh NW 6.0 mph9.7 kmh 29.98 in1015.2 mb 0.00 in0.0 mm 0.00 in0.0 mm 0.00 in0.0 mm
11:40 AM 86.2°F30.1°C 64.2°F17.9°C 48% 2.5 mph W4.0 kmh W 7.0 mph11.3 kmh 29.98 in1015.2 mb 0.00 in0.0 mm 0.00 in0.0 mm 0.00 in0.0 mm
11:45 AM 86.0°F30.0°C 63.4°F17.4°C 47% 4.0 mph W6.4 kmh W 8.0 mph12.9 kmh 29.98 in1015.2 mb 0.00 in0.0 mm 0.00 in0.0 mm 0.00 in0.0 mm
11:50 AM 86.1°F30.1°C 65.3°F18.5°C 50% 4.1 mph WNW6.6 kmh WNW 8.0 mph12.9 kmh 29.98 in1015.2 mb 0.00 in0.0 mm 0.00 in0.0 mm 0.00 in0.0 mm
11:55 AM 85.5°F29.7°C 64.7°F18.2°C 50% 2.9 mph NW4.7 kmh NW 8.0 mph12.9 kmh 29.98 in1015.2 mb 0.00 in0.0 mm 0.00 in0.0 mm 0.00 in0.0 mm
12:00 PM 85.7°F29.8°C 64.9°F18.3°C 50% 2.3 mph NW3.7 kmh NW 7.0 mph11.3 kmh 29.98 in1015.2 mb 0.00 in0.0 mm 0.00 in0.0 mm 0.00 in0.0 mm
12:05 PM 85.9°F29.9°C 66.2°F19.0°C 52% 2.3 mph NW3.7 kmh NW 5.0 mph8.0 kmh 29.97 in1014.9 mb 0.00 in0.0 mm 0.00 in0.0 mm 0.00 in0.0 mm
12:10 PM 85.8°F29.9°C 66.1°F18.9°C 52% 2.4 mph W3.9 kmh W 6.0 mph9.7 kmh 29.97 in1014.9 mb 0.00 in0.0 mm 0.00 in0.0 mm 0.00 in0.0 mm
12:15 PM 85.9°F29.9°C 66.8°F19.3°C 53% 2.3 mph WNW3.7 kmh WNW 6.0 mph9.7 kmh 29.97 in1014.9 mb 0.00 in0.0 mm 0.00 in0.0 mm 0.00 in0.0 mm
12:20 PM 85.9°F29.9°C 67.3°F19.6°C 54% 2.5 mph WNW4.0 kmh WNW 5.0 mph8.0 kmh 29.98 in1015.2 mb 0.00 in0.0 mm 0.00 in0.0 mm 0.00 in0.0 mm
12:25 PM 86.1°F30.1°C 67.5°F19.7°C 54% 3.2 mph W5.1 kmh W 6.0 mph9.7 kmh 29.97 in1014.9 mb 0.00 in0.0 mm 0.00 in0.0 mm 0.00 in0.0 mm
12:30 PM 86.1°F30.1°C 66.9°F19.4°C 53% 3.0 mph SW4.8 kmh SW 8.0 mph12.9 kmh 29.97 in1014.9 mb 0.00 in0.0 mm 0.00 in0.0 mm 0.00 in0.0 mm
12:35 PM 86.2°F30.1°C 66.5°F19.2°C 52% 2.8 mph W4.5 kmh W 8.0 mph12.9 kmh 29.97 in1014.9 mb 0.00 in0.0 mm 0.00 in0.0 mm 0.00 in0.0 mm
12:40 PM 86.2°F30.1°C 67.6°F19.8°C 54% 1.3 mph WSW2.1 kmh WSW 5.0 mph8.0 kmh 29.96 in1014.6 mb 0.00 in0.0 mm 0.00 in0.0 mm 0.00 in0.0 mm
12:45 PM 86.0°F30.0°C 66.3°F19.1°C 52% 3.8 mph NNW6.1 kmh NNW 7.0 mph11.3 kmh 29.96 in1014.6 mb 0.00 in0.0 mm 0.00 in0.0 mm 0.00 in0.0 mm
12:50 PM 86.3°F30.2°C 67.1°F19.5°C 53% 2.8 mph WNW4.5 kmh WNW 7.0 mph11.3 kmh 29.96 in1014.6 mb 0.00 in0.0 mm 0.00 in0.0 mm 0.00 in0.0 mm
12:55 PM 86.5°F30.3°C 66.8°F19.3°C 52% 2.2 mph W3.5 kmh W 6.0 mph9.7 kmh 29.97 in1014.9 mb 0.00 in0.0 mm 0.00 in0.0 mm 0.00 in0.0 mm
01:00 PM 86.8°F30.4°C 64.1°F17.8°C 47% 4.6 mph WNW7.4 kmh WNW 10.0 mph16.1 kmh 29.97 in1014.9 mb 0.00 in0.0 mm 0.00 in0.0 mm 0.00 in0.0 mm
01:05 PM 86.7°F30.4°C 64.6°F18.1°C 48% 5.6 mph WNW9.0 kmh WNW 10.0 mph16.1 kmh 29.96 in1014.6 mb 0.00 in0.0 mm 0.00 in0.0 mm 0.00 in0.0 mm
01:10 PM 86.5°F30.3°C 63.8°F17.7°C 47% 3.4 mph WNW5.5 kmh WNW 9.0 mph14.5 kmh 29.96 in1014.6 mb 0.00 in0.0 mm 0.00 in0.0 mm 0.00 in0.0 mm
01:15 PM 86.7°F30.4°C 62.8°F17.1°C 45% 2.5 mph WNW4.0 kmh WNW 7.0 mph11.3 kmh 29.96 in1014.6 mb 0.00 in0.0 mm 0.00 in0.0 mm 0.00 in0.0 mm
01:20 PM 86.6°F30.3°C 62.7°F17.1°C 45% 4.3 mph WNW6.9 kmh WNW 8.0 mph12.9 kmh 29.96 in1014.6 mb 0.00 in0.0 mm 0.00 in0.0 mm 0.00 in0.0 mm
01:25 PM 87.0°F30.6°C 63.7°F17.6°C 46% 4.3 mph WNW6.9 kmh WNW 9.0 mph14.5 kmh 29.96 in1014.6 mb 0.00 in0.0 mm 0.00 in0.0 mm 0.00 in0.0 mm
01:30 PM 87.5°F30.8°C 63.5°F17.5°C 45% 4.6 mph NW7.4 kmh NW 9.0 mph14.5 kmh 29.96 in1014.6 mb 0.00 in0.0 mm 0.00 in0.0 mm 0.00 in0.0 mm
01:35 PM 87.2°F30.7°C 64.5°F18.1°C 47% 3.7 mph NW6.0 kmh NW 8.0 mph12.9 kmh 29.96 in1014.6 mb 0.00 in0.0 mm 0.00 in0.0 mm 0.00 in0.0 mm
01:40 PM 86.9°F30.5°C 63.6°F17.6°C 46% 3.3 mph NW5.3 kmh NW 7.0 mph11.3 kmh 29.96 in1014.6 mb 0.00 in0.0 mm 0.00 in0.0 mm 0.00 in0.0 mm
01:45 PM 86.7°F30.4°C 62.1°F16.7°C 44% 4.4 mph WNW7.1 kmh WNW 9.0 mph14.5 kmh 29.96 in1014.6 mb 0.00 in0.0 mm 0.00 in0.0 mm 0.00 in0.0 mm
01:50 PM 86.3°F30.2°C 63.0°F17.2°C 46% 4.5 mph WNW7.2 kmh WNW 9.0 mph14.5 kmh 29.96 in1014.6 mb 0.00 in0.0 mm 0.00 in0.0 mm 0.00 in0.0 mm
01:55 PM 86.0°F30.0°C 62.2°F16.8°C 45% 4.2 mph WNW6.8 kmh WNW 8.0 mph12.9 kmh 29.96 in1014.6 mb 0.00 in0.0 mm 0.00 in0.0 mm 0.00 in0.0 mm
02:00 PM 85.8°F29.9°C 62.0°F16.7°C 45% 3.4 mph N5.5 kmh N 7.0 mph11.3 kmh 29.95 in1014.2 mb 0.00 in0.0 mm 0.00 in0.0 mm 0.00 in0.0 mm
02:05 PM 85.7°F29.8°C 62.5°F16.9°C 46% 2.5 mph NNW4.0 kmh NNW 6.0 mph9.7 kmh 29.94 in1013.9 mb 0.00 in0.0 mm 0.00 in0.0 mm 0.00 in0.0 mm
02:10 PM 85.6°F29.8°C 62.4°F16.9°C 46% 2.7 mph N4.3 kmh N 5.0 mph8.0 kmh 29.93 in1013.5 mb 0.00 in0.0 mm 0.00 in0.0 mm 0.00 in0.0 mm
02:15 PM 85.7°F29.8°C 62.5°F16.9°C 46% 3.6 mph NE5.8 kmh NE 5.0 mph8.0 kmh 29.92 in1013.2 mb 0.00 in0.0 mm 0.00 in0.0 mm 0.00 in0.0 mm
02:20 PM 85.7°F29.8°C 62.5°F16.9°C 46% 2.3 mph NNE3.7 kmh NNE 5.0 mph8.0 kmh 29.92 in1013.2 mb 0.00 in0.0 mm 0.00 in0.0 mm 0.00 in0.0 mm
02:25 PM 85.6°F29.8°C 62.4°F16.9°C 46% 1.8 mph NNE2.9 kmh NNE 4.0 mph6.4 kmh 29.92 in1013.2 mb 0.00 in0.0 mm 0.00 in0.0 mm 0.00 in0.0 mm
02:30 PM 85.6°F29.8°C 62.4°F16.9°C 46% 3.2 mph NNE5.1 kmh NNE 6.0 mph9.7 kmh 29.92 in1013.2 mb 0.00 in0.0 mm 0.00 in0.0 mm 0.00 in0.0 mm
02:35 PM 85.6°F29.8°C 63.6°F17.6°C 48% 2.6 mph NE4.2 kmh NE 6.0 mph9.7 kmh 29.91 in1012.9 mb 0.00 in0.0 mm 0.00 in0.0 mm 0.00 in0.0 mm
02:40 PM 85.6°F29.8°C 64.2°F17.9°C 49% 1.8 mph E2.9 kmh E 6.0 mph9.7 kmh 29.90 in1012.5 mb 0.00 in0.0 mm 0.00 in0.0 mm 0.00 in0.0 mm
02:45 PM 85.4°F29.7°C 65.2°F18.4°C 51% 0.5 mph SSE0.8 kmh SSE 5.0 mph8.0 kmh 29.90 in1012.5 mb 0.00 in0.0 mm 0.00 in0.0 mm 0.00 in0.0 mm
02:50 PM 85.4°F29.7°C 64.0°F17.8°C 49% 0.9 mph SSE1.4 kmh SSE 3.0 mph4.8 kmh 29.91 in1012.9 mb 0.00 in0.0 mm 0.00 in0.0 mm 0.00 in0.0 mm
02:55 PM 85.4°F29.7°C 64.0°F17.8°C 49% 2.6 mph SW4.2 kmh SW 5.0 mph8.0 kmh 29.92 in1013.2 mb 0.00 in0.0 mm 0.00 in0.0 mm 0.00 in0.0 mm
03:00 PM 85.4°F29.7°C 65.2°F18.4°C 51% 3.7 mph SW6.0 kmh SW 6.0 mph9.7 kmh 29.92 in1013.2 mb 0.00 in0.0 mm 0.00 in0.0 mm 0.00 in0.0 mm
03:05 PM 85.7°F29.8°C 63.7°F17.6°C 48% 2.5 mph SSW4.0 kmh SSW 7.0 mph11.3 kmh 29.92 in1013.2 mb 0.00 in0.0 mm 0.00 in0.0 mm 0.00 in0.0 mm
03:10 PM 85.8°F29.9°C 63.8°F17.7°C 48% 2.9 mph SSW4.7 kmh SSW 7.0 mph11.3 kmh 29.91 in1012.9 mb 0.00 in0.0 mm 0.00 in0.0 mm 0.00 in0.0 mm
03:15 PM 85.7°F29.8°C 63.1°F17.3°C 47% 3.7 mph SSW6.0 kmh SSW 7.0 mph11.3 kmh 29.90 in1012.5 mb 0.00 in0.0 mm 0.00 in0.0 mm 0.00 in0.0 mm
03:20 PM 85.4°F29.7°C 63.4°F17.4°C 48% 3.7 mph SSW6.0 kmh SSW 7.0 mph11.3 kmh 29.90 in1012.5 mb 0.00 in0.0 mm 0.00 in0.0 mm 0.00 in0.0 mm
03:25 PM 85.0°F29.4°C 64.8°F18.2°C 51% 4.4 mph SW7.1 kmh SW 8.0 mph12.9 kmh 29.90 in1012.5 mb 0.00 in0.0 mm 0.00 in0.0 mm 0.00 in0.0 mm
03:30 PM 84.8°F29.3°C 65.2°F18.4°C 52% 4.5 mph SSW7.2 kmh SSW 8.0 mph12.9 kmh 29.90 in1012.5 mb 0.00 in0.0 mm 0.00 in0.0 mm 0.00 in0.0 mm
03:35 PM 84.8°F29.3°C 65.7°F18.7°C 53% 4.2 mph SSW6.8 kmh SSW 8.0 mph12.9 kmh 29.90 in1012.5 mb 0.00 in0.0 mm 0.00 in0.0 mm 0.00 in0.0 mm
03:40 PM 84.9°F29.4°C 65.8°F18.8°C 53% 4.3 mph SSW6.9 kmh SSW 8.0 mph12.9 kmh 29.90 in1012.5 mb 0.00 in0.0 mm 0.00 in0.0 mm 0.00 in0.0 mm
03:45 PM 84.9°F29.4°C 66.4°F19.1°C 54% 3.2 mph SSW5.1 kmh SSW 7.0 mph11.3 kmh 29.89 in1012.2 mb 0.00 in0.0 mm 0.00 in0.0 mm 0.00 in0.0 mm
03:50 PM 84.7°F29.3°C 66.7°F19.3°C 55% 3.8 mph SSW6.1 kmh SSW 7.0 mph11.3 kmh 29.90 in1012.5 mb 0.00 in0.0 mm 0.00 in0.0 mm 0.00 in0.0 mm
03:55 PM 84.5°F29.2°C 66.5°F19.2°C 55% 4.1 mph SSW6.6 kmh SSW 8.0 mph12.9 kmh 29.89 in1012.2 mb 0.00 in0.0 mm 0.00 in0.0 mm 0.00 in0.0 mm
04:00 PM 84.3°F29.1°C 66.9°F19.4°C 56% 4.6 mph SW7.4 kmh SW 8.0 mph12.9 kmh 29.89 in1012.2 mb 0.00 in0.0 mm 0.00 in0.0 mm 0.00 in0.0 mm
04:05 PM 84.0°F28.9°C 66.6°F19.2°C 56% 4.6 mph SW7.4 kmh SW 9.0 mph14.5 kmh 29.89 in1012.2 mb 0.00 in0.0 mm 0.00 in0.0 mm 0.00 in0.0 mm
04:10 PM 84.1°F28.9°C 67.2°F19.6°C 57% 3.3 mph SSW5.3 kmh SSW 9.0 mph14.5 kmh 29.90 in1012.5 mb 0.00 in0.0 mm 0.00 in0.0 mm 0.00 in0.0 mm
04:15 PM 84.0°F28.9°C 66.1°F18.9°C 55% 5.1 mph SW8.2 kmh SW 11.0 mph17.7 kmh 29.89 in1012.2 mb 0.00 in0.0 mm 0.00 in0.0 mm 0.00 in0.0 mm
04:20 PM 83.8°F28.8°C 66.9°F19.4°C 57% 4.3 mph SW6.9 kmh SW 11.0 mph17.7 kmh 29.89 in1012.2 mb 0.00 in0.0 mm 0.00 in0.0 mm 0.00 in0.0 mm
04:25 PM 83.8°F28.8°C 67.4°F19.7°C 58% 3.9 mph SW6.3 kmh SW 8.0 mph12.9 kmh 29.89 in1012.2 mb 0.00 in0.0 mm 0.00 in0.0 mm 0.00 in0.0 mm
04:30 PM 83.6°F28.7°C 67.2°F19.6°C 58% 3.8 mph SW6.1 kmh SW 7.0 mph11.3 kmh 29.89 in1012.2 mb 0.00 in0.0 mm 0.00 in0.0 mm 0.00 in0.0 mm
04:35 PM 83.6°F28.7°C 67.7°F19.8°C 59% 4.5 mph SW7.2 kmh SW 7.0 mph11.3 kmh 29.89 in1012.2 mb 0.00 in0.0 mm 0.00 in0.0 mm 0.00 in0.0 mm
04:40 PM 83.5°F28.6°C 67.6°F19.8°C 59% 4.9 mph SW7.9 kmh SW 9.0 mph14.5 kmh 29.88 in1011.9 mb 0.00 in0.0 mm 0.00 in0.0 mm 0.00 in0.0 mm
04:45 PM 83.4°F28.6°C 68.0°F20.0°C 60% 5.6 mph SW9.0 kmh SW 9.0 mph14.5 kmh 29.89 in1012.2 mb 0.00 in0.0 mm 0.00 in0.0 mm 0.00 in0.0 mm
04:50 PM 83.2°F28.4°C 67.4°F19.7°C 59% 4.4 mph SW7.1 kmh SW 9.0 mph14.5 kmh 29.88 in1011.9 mb 0.00 in0.0 mm 0.00 in0.0 mm 0.00 in0.0 mm
04:55 PM 83.1°F28.4°C 67.7°F19.8°C 60% 5.1 mph SW8.2 kmh SW 9.0 mph14.5 kmh 29.88 in1011.9 mb 0.00 in0.0 mm 0.00 in0.0 mm 0.00 in0.0 mm
05:00 PM 83.0°F28.3°C 67.7°F19.8°C 60% 4.5 mph SW7.2 kmh SW 10.0 mph16.1 kmh 29.88 in1011.9 mb 0.00 in0.0 mm 0.00 in0.0 mm 0.00 in0.0 mm
05:05 PM 82.9°F28.3°C 67.6°F19.8°C 60% 4.6 mph SW7.4 kmh SW 10.0 mph16.1 kmh 29.88 in1011.9 mb 0.00 in0.0 mm 0.00 in0.0 mm 0.00 in0.0 mm
05:10 PM 82.8°F28.2°C 67.9°F19.9°C 61% 4.6 mph SW7.4 kmh SW 10.0 mph16.1 kmh 29.88 in1011.9 mb 0.00 in0.0 mm 0.00 in0.0 mm 0.00 in0.0 mm
05:15 PM 82.8°F28.2°C 67.9°F19.9°C 61% 3.9 mph SW6.3 kmh SW 10.0 mph16.1 kmh 29.88 in1011.9 mb 0.00 in0.0 mm 0.00 in0.0 mm 0.00 in0.0 mm
05:20 PM 82.7°F28.2°C 67.9°F19.9°C 61% 3.9 mph SW6.3 kmh SW 10.0 mph16.1 kmh 29.87 in1011.5 mb 0.00 in0.0 mm 0.00 in0.0 mm 0.00 in0.0 mm
05:25 PM 82.7°F28.2°C 67.9°F19.9°C 61% 3.5 mph SW5.6 kmh SW 8.0 mph12.9 kmh 29.87 in1011.5 mb 0.00 in0.0 mm 0.00 in0.0 mm 0.00 in0.0 mm
05:30 PM 82.7°F28.2°C 67.9°F19.9°C 61% 2.6 mph WSW4.2 kmh WSW 8.0 mph12.9 kmh 29.87 in1011.5 mb 0.00 in0.0 mm 0.00 in0.0 mm 0.00 in0.0 mm
05:35 PM 82.5°F28.1°C 67.2°F19.6°C 60% 3.7 mph SW6.0 kmh SW 10.0 mph16.1 kmh 29.87 in1011.5 mb 0.00 in0.0 mm 0.00 in0.0 mm 0.00 in0.0 mm
05:40 PM 82.4°F28.0°C 66.1°F18.9°C 58% 3.4 mph WSW5.5 kmh WSW 10.0 mph16.1 kmh 29.87 in1011.5 mb 0.00 in0.0 mm 0.00 in0.0 mm 0.00 in0.0 mm
05:45 PM 82.3°F27.9°C 66.0°F18.9°C 58% 3.6 mph SW5.8 kmh SW 8.0 mph12.9 kmh 29.87 in1011.5 mb 0.00 in0.0 mm 0.00 in0.0 mm 0.00 in0.0 mm
05:50 PM 82.3°F27.9°C 66.0°F18.9°C 58% 2.4 mph WSW3.9 kmh WSW 8.0 mph12.9 kmh 29.87 in1011.5 mb 0.00 in0.0 mm 0.00 in0.0 mm 0.00 in0.0 mm
05:55 PM 82.2°F27.9°C 65.9°F18.8°C 58% 3.0 mph W4.8 kmh W 9.0 mph14.5 kmh 29.87 in1011.5 mb 0.00 in0.0 mm 0.00 in0.0 mm 0.00 in0.0 mm
06:00 PM 82.2°F27.9°C 65.9°F18.8°C 58% 3.5 mph SW5.6 kmh SW 9.0 mph14.5 kmh 29.86 in1011.2 mb 0.00 in0.0 mm 0.00 in0.0 mm 0.00 in0.0 mm
06:05 PM 82.0°F27.8°C 65.7°F18.7°C 58% 3.3 mph SW5.3 kmh SW 7.0 mph11.3 kmh 29.86 in1011.2 mb 0.00 in0.0 mm 0.00 in0.0 mm 0.00 in0.0 mm
06:10 PM 82.0°F27.8°C 65.2°F18.4°C 57% 2.7 mph WSW4.3 kmh WSW 7.0 mph11.3 kmh 29.86 in1011.2 mb 0.00 in0.0 mm 0.00 in0.0 mm 0.00 in0.0 mm
06:15 PM 82.0°F27.8°C 65.2°F18.4°C 57% 3.8 mph WSW6.1 kmh WSW 8.0 mph12.9 kmh 29.86 in1011.2 mb 0.00 in0.0 mm 0.00 in0.0 mm 0.00 in0.0 mm
06:20 PM 82.0°F27.8°C 64.7°F18.2°C 56% 3.5 mph SW5.6 kmh SW 8.0 mph12.9 kmh 29.86 in1011.2 mb 0.00 in0.0 mm 0.00 in0.0 mm 0.00 in0.0 mm
06:25 PM 82.0°F27.8°C 65.2°F18.4°C 57% 3.7 mph WSW6.0 kmh WSW 9.0 mph14.5 kmh 29.86 in1011.2 mb 0.00 in0.0 mm 0.00 in0.0 mm 0.00 in0.0 mm
06:30 PM 82.0°F27.8°C 65.7°F18.7°C 58% 3.5 mph WSW5.6 kmh WSW 9.0 mph14.5 kmh 29.87 in1011.5 mb 0.00 in0.0 mm 0.00 in0.0 mm 0.00 in0.0 mm
06:35 PM 81.8°F27.7°C 65.6°F18.7°C 58% 3.7 mph SW6.0 kmh SW 8.0 mph12.9 kmh 29.87 in1011.5 mb 0.00 in0.0 mm 0.00 in0.0 mm 0.00 in0.0 mm
06:40 PM 81.7°F27.6°C 66.4°F19.1°C 60% 3.3 mph WSW5.3 kmh WSW 7.0 mph11.3 kmh 29.87 in1011.5 mb 0.00 in0.0 mm 0.00 in0.0 mm 0.00 in0.0 mm
06:45 PM 81.5°F27.5°C 66.2°F19.0°C 60% 3.3 mph WSW5.3 kmh WSW 7.0 mph11.3 kmh 29.87 in1011.5 mb 0.00 in0.0 mm 0.00 in0.0 mm 0.00 in0.0 mm
06:50 PM 81.4°F27.4°C 66.6°F19.2°C 61% 4.0 mph SW6.4 kmh SW 9.0 mph14.5 kmh 29.87 in1011.5 mb 0.00 in0.0 mm 0.00 in0.0 mm 0.00 in0.0 mm
06:55 PM 81.3°F27.4°C 66.5°F19.2°C 61% 3.9 mph WSW6.3 kmh WSW 9.0 mph14.5 kmh 29.87 in1011.5 mb 0.00 in0.0 mm 0.00 in0.0 mm 0.00 in0.0 mm
07:00 PM 81.3°F27.4°C 67.0°F19.4°C 62% 3.5 mph WSW5.6 kmh WSW 9.0 mph14.5 kmh 29.87 in1011.5 mb 0.00 in0.0 mm 0.00 in0.0 mm 0.00 in0.0 mm
07:05 PM 81.3°F27.4°C 67.0°F19.4°C 62% 2.9 mph WSW4.7 kmh WSW 6.0 mph9.7 kmh 29.87 in1011.5 mb 0.00 in0.0 mm 0.00 in0.0 mm 0.00 in0.0 mm
07:10 PM 81.2°F27.3°C 66.9°F19.4°C 62% 2.5 mph WSW4.0 kmh WSW 6.0 mph9.7 kmh 29.86 in1011.2 mb 0.00 in0.0 mm 0.00 in0.0 mm 0.00 in0.0 mm
07:15 PM 81.1°F27.3°C 66.8°F19.3°C 62% 2.8 mph SW4.5 kmh SW 8.0 mph12.9 kmh 29.86 in1011.2 mb 0.00 in0.0 mm 0.00 in0.0 mm 0.00 in0.0 mm
07:20 PM 81.0°F27.2°C 67.2°F19.6°C 63% 2.1 mph SW3.4 kmh SW 8.0 mph12.9 kmh 29.86 in1011.2 mb 0.00 in0.0 mm 0.00 in0.0 mm 0.00 in0.0 mm
07:25 PM 80.9°F27.2°C 67.1°F19.5°C 63% 1.8 mph WSW2.9 kmh WSW 5.0 mph8.0 kmh 29.86 in1011.2 mb 0.00 in0.0 mm 0.00 in0.0 mm 0.00 in0.0 mm
07:30 PM 80.8°F27.1°C 67.0°F19.4°C 63% 2.0 mph SW3.2 kmh SW 5.0 mph8.0 kmh 29.86 in1011.2 mb 0.00 in0.0 mm 0.00 in0.0 mm 0.00 in0.0 mm
07:35 PM 80.7°F27.1°C 67.4°F19.7°C 64% 1.2 mph SW1.9 kmh SW 5.0 mph8.0 kmh 29.86 in1011.2 mb 0.00 in0.0 mm 0.00 in0.0 mm 0.00 in0.0 mm
07:40 PM 80.7°F27.1°C 67.4°F19.7°C 64% 2.1 mph WSW3.4 kmh WSW 5.0 mph8.0 kmh 29.86 in1011.2 mb 0.00 in0.0 mm 0.00 in0.0 mm 0.00 in0.0 mm
07:45 PM 80.7°F27.1°C 67.4°F19.7°C 64% 2.1 mph SW3.4 kmh SW 6.0 mph9.7 kmh 29.86 in1011.2 mb 0.00 in0.0 mm 0.00 in0.0 mm 0.00 in0.0 mm
07:50 PM 80.6°F27.0°C 67.3°F19.6°C 64% 1.6 mph WSW2.6 kmh WSW 6.0 mph9.7 kmh 29.86 in1011.2 mb 0.00 in0.0 mm 0.00 in0.0 mm 0.00 in0.0 mm
07:55 PM 80.5°F26.9°C 67.2°F19.6°C 64% 1.1 mph WSW1.8 kmh WSW 5.0 mph8.0 kmh 29.86 in1011.2 mb 0.00 in0.0 mm 0.00 in0.0 mm 0.00 in0.0 mm
08:00 PM 80.4°F26.9°C 67.5°F19.7°C 65% 1.4 mph SW2.3 kmh SW 5.0 mph8.0 kmh 29.86 in1011.2 mb 0.00 in0.0 mm 0.00 in0.0 mm 0.00 in0.0 mm
08:05 PM 80.3°F26.8°C 67.4°F19.7°C 65% 1.5 mph WSW2.4 kmh WSW 4.0 mph6.4 kmh 29.86 in1011.2 mb 0.00 in0.0 mm 0.00 in0.0 mm 0.00 in0.0 mm
08:10 PM 80.3°F26.8°C 67.4°F19.7°C 65% 1.3 mph WSW2.1 kmh WSW 4.0 mph6.4 kmh 29.86 in1011.2 mb 0.00 in0.0 mm 0.00 in0.0 mm 0.00 in0.0 mm
08:15 PM 80.3°F26.8°C 67.4°F19.7°C 65% 0.8 mph SW1.3 kmh SW 4.0 mph6.4 kmh 29.86 in1011.2 mb 0.00 in0.0 mm 0.00 in0.0 mm 0.00 in0.0 mm
08:20 PM 80.3°F26.8°C 67.4°F19.7°C 65% 1.5 mph SW2.4 kmh SW 4.0 mph6.4 kmh 29.86 in1011.2 mb 0.00 in0.0 mm 0.00 in0.0 mm 0.00 in0.0 mm
08:25 PM 80.2°F26.8°C 67.3°F19.6°C 65% 0.7 mph SW1.1 kmh SW 4.0 mph6.4 kmh 29.86 in1011.2 mb 0.00 in0.0 mm 0.00 in0.0 mm 0.00 in0.0 mm
08:30 PM 80.3°F26.8°C 67.4°F19.7°C 65% 2.0 mph SW3.2 kmh SW 4.0 mph6.4 kmh 29.86 in1011.2 mb 0.00 in0.0 mm 0.00 in0.0 mm 0.00 in0.0 mm
08:35 PM 80.3°F26.8°C 67.0°F19.4°C 64% 1.1 mph WSW1.8 kmh WSW 4.0 mph6.4 kmh 29.87 in1011.5 mb 0.00 in0.0 mm 0.00 in0.0 mm 0.00 in0.0 mm
08:40 PM 80.2°F26.8°C 67.3°F19.6°C 65% 1.2 mph WSW1.9 kmh WSW 3.0 mph4.8 kmh 29.86 in1011.2 mb 0.00 in0.0 mm 0.00 in0.0 mm 0.00 in0.0 mm
08:45 PM 80.1°F26.7°C 67.2°F19.6°C 65% 1.4 mph WSW2.3 kmh WSW 3.0 mph4.8 kmh 29.86 in1011.2 mb 0.00 in0.0 mm 0.00 in0.0 mm 0.00 in0.0 mm
08:50 PM 80.0°F26.7°C 67.2°F19.6°C 65% 1.6 mph WSW2.6 kmh WSW 3.0 mph4.8 kmh 29.87 in1011.5 mb 0.00 in0.0 mm 0.00 in0.0 mm 0.00 in0.0 mm
08:55 PM 79.8°F26.6°C 67.4°F19.7°C 66% 0.9 mph SW1.4 kmh SW 3.0 mph4.8 kmh 29.87 in1011.5 mb 0.00 in0.0 mm 0.00 in0.0 mm 0.00 in0.0 mm
09:00 PM 79.7°F26.5°C 67.3°F19.6°C 66% 1.4 mph SW2.3 kmh SW 3.0 mph4.8 kmh 29.88 in1011.9 mb 0.00 in0.0 mm 0.00 in0.0 mm 0.00 in0.0 mm
09:05 PM 79.6°F26.4°C 67.7°F19.8°C 67% 1.4 mph SW2.3 kmh SW 3.0 mph4.8 kmh 29.88 in1011.9 mb 0.00 in0.0 mm 0.00 in0.0 mm 0.00 in0.0 mm
09:10 PM 79.6°F26.4°C 67.7°F19.8°C 67% 1.4 mph SW2.3 kmh SW 3.0 mph4.8 kmh 29.88 in1011.9 mb 0.00 in0.0 mm 0.00 in0.0 mm 0.00 in0.0 mm
09:15 PM 79.6°F26.4°C 67.7°F19.8°C 67% 1.5 mph SW2.4 kmh SW 3.0 mph4.8 kmh 29.89 in1012.2 mb 0.00 in0.0 mm 0.00 in0.0 mm 0.00 in0.0 mm
09:20 PM 79.5°F26.4°C 68.0°F20.0°C 68% 1.6 mph SW2.6 kmh SW 3.0 mph4.8 kmh 29.89 in1012.2 mb 0.00 in0.0 mm 0.00 in0.0 mm 0.00 in0.0 mm
09:25 PM 79.4°F26.3°C 68.3°F20.2°C 69% 1.8 mph SW2.9 kmh SW 3.0 mph4.8 kmh 29.89 in1012.2 mb 0.00 in0.0 mm 0.00 in0.0 mm 0.00 in0.0 mm
09:30 PM 79.4°F26.3°C 68.3°F20.2°C 69% 1.9 mph SW3.1 kmh SW 4.0 mph6.4 kmh 29.89 in1012.2 mb 0.00 in0.0 mm 0.00 in0.0 mm 0.00 in0.0 mm
09:35 PM 79.4°F26.3°C 68.7°F20.4°C 70% 2.6 mph SW4.2 kmh SW 5.0 mph8.0 kmh 29.89 in1012.2 mb 0.00 in0.0 mm 0.00 in0.0 mm 0.00 in0.0 mm
09:40 PM 79.4°F26.3°C 68.3°F20.2°C 69% 2.0 mph SW3.2 kmh SW 5.0 mph8.0 kmh 29.90 in1012.5 mb 0.00 in0.0 mm 0.00 in0.0 mm 0.00 in0.0 mm
09:45 PM 79.5°F26.4°C 68.0°F20.0°C 68% 1.8 mph SW2.9 kmh SW 4.0 mph6.4 kmh 29.90 in1012.5 mb 0.00 in0.0 mm 0.00 in0.0 mm 0.00 in0.0 mm
09:50 PM 79.6°F26.4°C 68.1°F20.1°C 68% 2.5 mph SW4.0 kmh SW 6.0 mph9.7 kmh 29.90 in1012.5 mb 0.00 in0.0 mm 0.00 in0.0 mm 0.00 in0.0 mm
09:55 PM 79.6°F26.4°C 68.1°F20.1°C 68% 1.6 mph SW2.6 kmh SW 6.0 mph9.7 kmh 29.90 in1012.5 mb 0.00 in0.0 mm 0.00 in0.0 mm 0.00 in0.0 mm
10:00 PM 79.5°F26.4°C 68.0°F20.0°C 68% 1.3 mph SW2.1 kmh SW 4.0 mph6.4 kmh 29.90 in1012.5 mb 0.00 in0.0 mm 0.00 in0.0 mm 0.00 in0.0 mm
10:05 PM 79.3°F26.3°C 68.2°F20.1°C 69% 0.9 mph SW1.4 kmh SW 2.0 mph3.2 kmh 29.90 in1012.5 mb 0.00 in0.0 mm 0.00 in0.0 mm 0.00 in0.0 mm
10:10 PM 79.2°F26.2°C 68.1°F20.1°C 69% 1.0 mph SW1.6 kmh SW 2.0 mph3.2 kmh 29.90 in1012.5 mb 0.00 in0.0 mm 0.00 in0.0 mm 0.00 in0.0 mm
10:15 PM 79.3°F26.3°C 68.2°F20.1°C 69% 1.3 mph SW2.1 kmh SW 3.0 mph4.8 kmh 29.90 in1012.5 mb 0.00 in0.0 mm 0.00 in0.0 mm 0.00 in0.0 mm
10:20 PM 79.4°F26.3°C 67.9°F19.9°C 68% 1.7 mph SW2.7 kmh SW 4.0 mph6.4 kmh 29.90 in1012.5 mb 0.00 in0.0 mm 0.00 in0.0 mm 0.00 in0.0 mm
10:25 PM 79.4°F26.3°C 68.3°F20.2°C 69% 1.3 mph SW2.1 kmh SW 4.0 mph6.4 kmh 29.89 in1012.2 mb 0.00 in0.0 mm 0.00 in0.0 mm 0.00 in0.0 mm
10:30 PM 79.2°F26.2°C 68.1°F20.1°C 69% 1.1 mph SW1.8 kmh SW 3.0 mph4.8 kmh 29.90 in1012.5 mb 0.00 in0.0 mm 0.00 in0.0 mm 0.00 in0.0 mm
10:35 PM 79.1°F26.2°C 68.0°F20.0°C 69% 1.2 mph SW1.9 kmh SW 3.0 mph4.8 kmh 29.90 in1012.5 mb 0.00 in0.0 mm 0.00 in0.0 mm 0.00 in0.0 mm
10:40 PM 78.7°F25.9°C 68.1°F20.1°C 70% 0.6 mph SW1.0 kmh SW 3.0 mph4.8 kmh 29.90 in1012.5 mb 0.00 in0.0 mm 0.00 in0.0 mm 0.00 in0.0 mm
10:45 PM 78.7°F25.9°C 68.1°F20.1°C 70% 0.6 mph SW1.0 kmh SW 3.0 mph4.8 kmh 29.90 in1012.5 mb 0.00 in0.0 mm 0.00 in0.0 mm 0.00 in0.0 mm
10:50 PM 78.5°F25.8°C 68.3°F20.2°C 71% 0.5 mph SW0.8 kmh SW 2.0 mph3.2 kmh 29.90 in1012.5 mb 0.00 in0.0 mm 0.00 in0.0 mm 0.00 in0.0 mm
10:55 PM 78.2°F25.7°C 68.0°F20.0°C 71% 0.5 mph SW0.8 kmh SW 3.0 mph4.8 kmh 29.89 in1012.2 mb 0.00 in0.0 mm 0.00 in0.0 mm 0.00 in0.0 mm
11:00 PM 77.9°F25.5°C 68.1°F20.1°C 72% 0.1 mph SW0.2 kmh SW 3.0 mph4.8 kmh 29.89 in1012.2 mb 0.00 in0.0 mm 0.00 in0.0 mm 0.00 in0.0 mm
11:05 PM 77.9°F25.5°C 68.1°F20.1°C 72% 0.3 mph SW0.5 kmh SW 2.0 mph3.2 kmh 29.90 in1012.5 mb 0.00 in0.0 mm 0.00 in0.0 mm 0.00 in0.0 mm
11:10 PM 77.8°F25.4°C 68.0°F20.0°C 72% Calm Calm 2.0 mph3.2 kmh 29.89 in1012.2 mb 0.00 in0.0 mm 0.00 in0.0 mm 0.00 in0.0 mm
11:15 PM 77.7°F25.4°C 68.3°F20.2°C 73% Calm Calm 1.0 mph1.6 kmh 29.89 in1012.2 mb 0.00 in0.0 mm 0.00 in0.0 mm 0.00 in0.0 mm
11:20 PM 77.6°F25.3°C 68.2°F20.1°C 73% Calm Calm -- 29.90 in1012.5 mb 0.00 in0.0 mm 0.00 in0.0 mm 0.00 in0.0 mm
11:25 PM 77.6°F25.3°C 68.2°F20.1°C 73% Calm Calm -- 29.89 in1012.2 mb 0.00 in0.0 mm 0.00 in0.0 mm 0.00 in0.0 mm
11:30 PM 77.6°F25.3°C 68.2°F20.1°C 73% Calm Calm -- 29.89 in1012.2 mb 0.00 in0.0 mm 0.00 in0.0 mm 0.00 in0.0 mm
11:35 PM 77.6°F25.3°C 68.2°F20.1°C 73% 0.2 mph SW0.3 kmh SW 1.0 mph1.6 kmh 29.89 in1012.2 mb 0.00 in0.0 mm 0.00 in0.0 mm 0.00 in0.0 mm
11:40 PM 77.5°F25.3°C 68.1°F20.1°C 73% Calm Calm 1.0 mph1.6 kmh 29.88 in1011.9 mb 0.00 in0.0 mm 0.00 in0.0 mm 0.00 in0.0 mm
11:45 PM 77.5°F25.3°C 68.1°F20.1°C 73% Calm Calm 1.0 mph1.6 kmh 29.89 in1012.2 mb 0.00 in0.0 mm 0.00 in0.0 mm 0.00 in0.0 mm
11:50 PM 77.3°F25.2°C 68.0°F20.0°C 73% Calm Calm 1.0 mph1.6 kmh 29.88 in1011.9 mb 0.00 in0.0 mm 0.00 in0.0 mm 0.00 in0.0 mm
11:55 PM 77.0°F25.0°C 68.1°F20.1°C 74% Calm Calm -- 29.89 in1012.2 mb 0.00 in0.0 mm 0.00 in0.0 mm 0.00 in0.0 mm